Time;durP1;ratioP1;P1;durP2;ratioP2;P2;SDS_P1;SDS_P2;PMS_P1;PMS_P2;Temp;Humidity;BMP_temperature;BMP_pressure;BME280_temperature;BME280_humidity;BME280_pressure;Samples;Min_cycle;Max_cycle;Signal;HPM_P1;HPM_P2
2021/01/05 00:01:58;;;;;;;;;;;;;;;5.86;100.00;92230.91;5034234;28;19917;-88
2021/01/05 00:04:24;;;;;;;;;;;;;;;5.94;100.00;92240.06;5031720;28;19924;-88
2021/01/05 00:06:58;;;;;;;;;;;;;;;6.00;100.00;92235.91;5026421;28;20283;-88
2021/01/05 00:09:25;;;;;;;;;;;;;;;6.03;100.00;92232.19;5012034;28;20036;-89
2021/01/05 00:11:55;;;;;;;;;;;;;;;6.01;100.00;92237.47;5011770;28;19924;-89
2021/01/05 00:14:21;;;;;;;;;;;;;;;5.98;100.00;92237.88;5011548;28;19971;-88
2021/01/05 00:16:47;;;;;;;;;;;;;;;5.99;100.00;92234.34;5012006;28;19917;-88
2021/01/05 00:19:13;;;;;;;;;;;;;;;5.96;100.00;92244.94;5011981;28;19917;-88
2021/01/05 00:21:39;;;;;;;;;;;;;;;5.91;100.00;92253.22;5011436;28;19922;-87
2021/01/05 00:24:05;;;;;;;;;;;;;;;5.85;100.00;92256.59;5011506;28;19924;-88
2021/01/05 00:26:35;;;;;;;;;;;;;;;5.81;100.00;92258.75;5011438;28;19925;-88
2021/01/05 00:29:01;;;;;;;;;;;;;;;5.71;100.00;92258.41;5011796;28;19928;-90
2021/01/05 00:31:27;;;;;;;;;;;;;;;5.71;100.00;92260.97;5011772;28;19917;-88
2021/01/05 00:33:53;;;;;;;;;;;;;;;5.68;100.00;92261.34;5011579;28;19917;-89
2021/01/05 00:36:19;;;;;;;;;;;;;;;5.67;100.00;92263.13;5015311;28;20000;-87
2021/01/05 00:38:45;;;;;;;;;;;;;;;5.70;100.00;92267.03;5015473;28;19925;-88
2021/01/05 00:41:11;;;;;;;;;;;;;;;5.68;100.00;92263.91;5015618;28;19964;-89
2021/01/05 00:43:39;;;;;;;;;;;;;;;5.68;100.00;92263.91;5015903;28;19925;-89
2021/01/05 00:46:06;;;;;;;;;;;;;;;5.66;100.00;92274.31;5015836;28;19918;-88
2021/01/05 00:48:32;;;;;;;;;;;;;;;5.66;100.00;92274.31;5015430;28;19925;-88
2021/01/05 00:50:58;;;;;;;;;;;;;;;5.64;100.00;92278.81;5015544;28;19917;-88
2021/01/05 00:53:24;;;;;;;;;;;;;;;5.61;100.00;92279.22;5015547;28;19921;-88
2021/01/05 00:55:50;;;;;;;;;;;;;;;5.57;100.00;92281.41;5024054;28;19921;-88
2021/01/05 00:58:16;;;;;;;;;;;;;;;5.52;100.00;92290.63;5034992;28;20421;-87
2021/01/05 01:00:43;;;;;;;;;;;;;;;5.40;100.00;92288.69;5034818;28;19921;-88
2021/01/05 01:03:09;;;;;;;;;;;;;;;5.34;100.00;92297.16;5035137;28;20271;-88
2021/01/05 01:05:36;;;;;;;;;;;;;;;5.31;100.00;92300.88;5035100;28;19921;-87
2021/01/05 01:08:01;;;;;;;;;;;;;;;5.25;100.00;92298.31;5034766;28;19916;-91
2021/01/05 01:10:28;;;;;;;;;;;;;;;5.27;100.00;92302.25;5034810;28;19963;-88
2021/01/05 01:12:54;;;;;;;;;;;;;;;5.30;100.00;92306.16;5035099;28;20679;-86
2021/01/05 01:15:20;;;;;;;;;;;;;;;5.31;100.00;92302.63;5034779;28;19921;-85
2021/01/05 01:17:46;;;;;;;;;;;;;;;5.34;100.00;92310.63;5034464;28;20367;-85
2021/01/05 01:20:13;;;;;;;;;;;;;;;5.34;100.00;92310.63;5034496;28;20247;-86
2021/01/05 01:22:39;;;;;;;;;;;;;;;5.34;100.00;92313.19;5034195;28;19917;-87
2021/01/05 01:25:06;;;;;;;;;;;;;;;5.32;100.00;92315.16;5034107;28;20360;-85
2021/01/05 01:27:32;;;;;;;;;;;;;;;5.31;100.00;92312.81;5034207;28;19917;-85
2021/01/05 01:29:58;;;;;;;;;;;;;;;5.22;100.00;92320.66;5034618;28;19917;-87
2021/01/05 01:32:24;;;;;;;;;;;;;;;5.22;100.00;92330.06;5034280;28;19921;-85
2021/01/05 01:34:51;;;;;;;;;;;;;;;5.17;100.00;92333.22;5034008;28;19924;-85
2021/01/05 01:37:17;;;;;;;;;;;;;;;5.18;100.00;92339.88;5033890;28;20359;-86
2021/01/05 01:39:44;;;;;;;;;;;;;;;5.14;100.00;92337.91;5033808;28;19917;-86
2021/01/05 01:42:11;;;;;;;;;;;;;;;5.13;100.00;92341.44;5034029;28;19979;-86
2021/01/05 01:44:38;;;;;;;;;;;;;;;5.15;100.00;92350.47;5033970;28;19917;-87
2021/01/05 01:47:07;;;;;;;;;;;;;;;5.17;100.00;92345.16;5033423;28;20386;-86
2021/01/05 01:49:34;;;;;;;;;;;;;;;5.10;100.00;92340.09;5034176;28;20007;-85
2021/01/05 01:52:01;;;;;;;;;;;;;;;5.12;100.00;92353.38;5033744;28;19917;-85
2021/01/05 01:54:44;;;;;;;;;;;;;;;5.11;100.00;92344.19;5033381;28;19971;-87
2021/01/05 01:57:20;;;;;;;;;;;;;;;5.14;100.00;92353.19;5033323;28;19917;-87
2021/01/05 01:59:52;;;;;;;;;;;;;;;5.16;100.00;92354.56;5033251;28;19966;-85
2021/01/05 02:02:21;;;;;;;;;;;;;;;5.18;100.00;92359.44;5033158;28;19924;-87
2021/01/05 02:04:53;;;;;;;;;;;;;;;5.21;100.00;92364.94;5033292;28;19916;-86
2021/01/05 02:07:36;;;;;;;;;;;;;;;5.27;100.00;92365.13;5033296;28;19924;-85
2021/01/05 02:10:25;;;;;;;;;;;;;;;5.29;100.00;92366.50;5033227;28;19979;-85
2021/01/05 02:13:00;;;;;;;;;;;;;;;5.31;100.00;92374.72;5017727;28;19963;-85
2021/01/05 02:15:29;;;;;;;;;;;;;;;5.35;100.00;92375.09;5033018;28;19917;-85
2021/01/05 02:18:03;;;;;;;;;;;;;;;5.39;100.00;92383.13;5033155;28;19928;-85
2021/01/05 02:20:32;;;;;;;;;;;;;;;5.40;100.00;92384.69;5033146;28;19928;-85
2021/01/05 02:23:03;;;;;;;;;;;;;;;5.43;100.00;92379.22;5032743;28;19921;-85
2021/01/05 02:25:42;;;;;;;;;;;;;;;5.38;100.00;92386.66;5032709;28;19924;-86
2021/01/05 02:28:10;;;;;;;;;;;;;;;5.27;100.00;92375.31;5033149;28;19924;-85
2021/01/05 02:30:39;;;;;;;;;;;;;;;5.25;100.00;92377.25;5032886;28;19924;-85
2021/01/05 02:33:13;;;;;;;;;;;;;;;5.25;100.00;92387.44;5032652;28;19921;-85
2021/01/05 02:35:50;;;;;;;;;;;;;;;5.19;100.00;92381.41;5032870;28;19994;-85
2021/01/05 02:38:30;;;;;;;;;;;;;;;5.19;100.00;92381.41;5032972;28;19917;-86
2021/01/05 02:41:09;;;;;;;;;;;;;;;5.13;100.00;92382.94;5032673;28;19924;-85
2021/01/05 02:44:02;;;;;;;;;;;;;;;5.18;100.00;92390.00;5032449;28;19917;-85
2021/01/05 02:46:39;;;;;;;;;;;;;;;5.18;100.00;92388.25;5011936;28;19939;-85
2021/01/05 02:49:18;;;;;;;;;;;;;;;5.15;100.00;92380.22;5052466;28;19916;-86
2021/01/05 02:52:11;;;;;;;;;;;;;;;4.99;100.00;92389.03;5052444;28;19920;-87
2021/01/05 02:54:56;;;;;;;;;;;;;;;5.02;100.00;92391.16;5052080;28;19917;-86
2021/01/05 02:57:43;;;;;;;;;;;;;;;5.07;100.00;92389.63;5011812;28;19921;-85
2021/01/05 03:00:27;;;;;;;;;;;;;;;5.11;100.00;92396.84;5012579;28;20409;-85
2021/01/05 03:03:04;;;;;;;;;;;;;;;5.10;100.00;92398.63;5012580;28;19928;-86
2021/01/05 03:05:30;;;;;;;;;;;;;;;5.09;100.00;92391.94;5012558;28;19921;-86
2021/01/05 03:07:56;;;;;;;;;;;;;;;5.15;100.00;92398.03;5025383;28;20314;-86
2021/01/05 03:10:41;;;;;;;;;;;;;;;5.19;100.00;92399.97;5032107;28;19940;-85
2021/01/05 03:13:19;;;;;;;;;;;;;;;5.20;100.00;92400.78;5031954;28;19924;-85
2021/01/05 03:15:46;;;;;;;;;;;;;;;5.17;100.00;92406.25;5031869;28;19963;-86
2021/01/05 03:18:20;;;;;;;;;;;;;;;5.10;100.00;92411.34;5032062;28;19916;-84
2021/01/05 03:20:50;;;;;;;;;;;;;;;5.11;100.00;92405.28;5031737;28;19928;-85
2021/01/05 03:23:17;;;;;;;;;;;;;;;5.07;100.00;92411.75;5031940;28;19917;-84
2021/01/05 03:25:45;;;;;;;;;;;;;;;5.02;100.00;92416.63;5031868;28;20378;-85
2021/01/05 03:28:12;;;;;;;;;;;;;;;5.04;100.00;92414.66;5031802;28;19921;-86
2021/01/05 03:30:40;;;;;;;;;;;;;;;5.01;100.00;92420.16;5032090;28;19921;-85
2021/01/05 03:33:06;;;;;;;;;;;;;;;5.00;100.00;92427.00;5031807;28;19979;-85
2021/01/05 03:35:32;;;;;;;;;;;;;;;5.02;100.00;92426.81;5031603;28;19921;-85
2021/01/05 03:37:59;;;;;;;;;;;;;;;4.91;100.00;92434.03;5031686;28;20310;-85
2021/01/05 03:40:25;;;;;;;;;;;;;;;4.93;100.00;92439.72;5031522;28;19917;-85
2021/01/05 03:42:51;;;;;;;;;;;;;;;4.94;100.00;92432.88;5031406;28;19917;-84
2021/01/05 03:45:19;;;;;;;;;;;;;;;4.96;100.00;92441.09;5031746;28;19917;-85
2021/01/05 03:47:46;;;;;;;;;;;;;;;5.00;100.00;92444.03;5031415;28;20248;-85
2021/01/05 03:50:12;;;;;;;;;;;;;;;4.90;100.00;92450.28;5031589;28;19924;-85
2021/01/05 03:52:38;;;;;;;;;;;;;;;4.89;100.00;92455.56;5031434;28;20417;-84
2021/01/05 03:55:05;;;;;;;;;;;;;;;4.89;100.00;92445.38;5031203;28;19947;-85
2021/01/05 03:57:31;;;;;;;;;;;;;;;4.95;100.00;92447.16;5031538;28;20279;-84
2021/01/05 03:59:57;;;;;;;;;;;;;;;4.92;100.00;92445.78;5031360;28;19917;-86
2021/01/05 04:02:23;;;;;;;;;;;;;;;4.90;100.00;92447.75;5031293;28;19971;-85
2021/01/05 04:04:50;;;;;;;;;;;;;;;4.95;100.00;92444.59;5031500;28;19921;-84
2021/01/05 04:07:15;;;;;;;;;;;;;;;4.94;100.00;92448.13;5022684;28;20352;-85
2021/01/05 04:09:41;;;;;;;;;;;;;;;4.92;100.00;92452.66;5030720;28;19924;-85
2021/01/05 04:12:09;;;;;;;;;;;;;;;4.97;100.00;92450.31;5034741;28;19921;-84
2021/01/05 04:14:35;;;;;;;;;;;;;;;5.00;100.00;92455.00;5045810;28;19924;-85
2021/01/05 04:17:01;;;;;;;;;;;;;;;5.01;100.00;92459.13;5055333;28;20301;-84
2021/01/05 04:19:27;;;;;;;;;;;;;;;5.02;100.00;92454.81;5054840;28;19963;-88
2021/01/05 04:21:54;;;;;;;;;;;;;;;5.02;100.00;92460.69;5054921;28;20355;-85
2021/01/05 04:24:20;;;;;;;;;;;;;;;5.04;100.00;92466.38;5054915;28;19920;-84
2021/01/05 04:26:46;;;;;;;;;;;;;;;5.06;100.00;92466.94;5044511;28;19917;-85
2021/01/05 04:29:12;;;;;;;;;;;;;;;4.95;100.00;92462.41;5035080;28;19917;-86
2021/01/05 04:31:39;;;;;;;;;;;;;;;4.88;100.00;92469.28;5035035;28;19967;-86
2021/01/05 04:34:05;;;;;;;;;;;;;;;4.82;100.00;92476.69;5035420;28;20359;-86
2021/01/05 04:36:31;;;;;;;;;;;;;;;4.86;100.00;92484.72;5034908;28;19921;-87
2021/01/05 04:38:58;;;;;;;;;;;;;;;4.85;100.00;92490.03;5034791;28;19917;-88
2021/01/05 04:41:25;;;;;;;;;;;;;;;4.81;100.00;92490.41;5034532;28;19928;-86
2021/01/05 04:43:54;;;;;;;;;;;;;;;4.70;100.00;92498.59;5034966;28;20306;-87
2021/01/05 04:46:36;;;;;;;;;;;;;;;4.68;100.00;92503.09;5034695;28;20352;-86
2021/01/05 04:49:05;;;;;;;;;;;;;;;4.72;100.00;92504.25;5032209;28;19917;-87
2021/01/05 04:51:40;;;;;;;;;;;;;;;4.70;100.00;92510.50;5034611;28;19921;-87
2021/01/05 04:54:13;;;;;;;;;;;;;;;4.70;100.00;92513.84;5034868;28;19941;-86
2021/01/05 04:56:46;;;;;;;;;;;;;;;4.71;100.00;92520.50;5034512;28;20385;-87
2021/01/05 04:59:14;;;;;;;;;;;;;;;4.77;100.00;92529.16;5048737;28;19921;-87
2021/01/05 05:01:42;;;;;;;;;;;;;;;4.82;100.00;92530.13;5037264;28;20321;-87
2021/01/05 05:04:13;;;;;;;;;;;;;;;4.80;100.00;92537.19;5036855;28;19916;-86
2021/01/05 05:06:42;;;;;;;;;;;;;;;4.77;100.00;92539.31;5034416;28;19924;-87
2021/01/05 05:09:23;;;;;;;;;;;;;;;4.74;100.00;92537.16;5034070;28;19917;-86
2021/01/05 05:12:06;;;;;;;;;;;;;;;4.74;100.00;92543.03;5030609;28;19948;-87
2021/01/05 05:14:41;;;;;;;;;;;;;;;4.66;100.00;92545.72;5034091;28;19920;-87
2021/01/05 05:17:22;;;;;;;;;;;;;;;4.71;100.00;92545.94;5034218;28;19917;-85
2021/01/05 05:19:53;;;;;;;;;;;;;;;4.54;100.00;92514.97;5033931;28;19917;-86
2021/01/05 05:22:25;;;;;;;;;;;;;;;4.69;100.00;92550.44;5033820;28;19917;-84
2021/01/05 05:24:54;;;;;;;;;;;;;;;4.73;100.00;92553.41;5033970;28;19924;-85
2021/01/05 05:27:27;;;;;;;;;;;;;;;4.71;100.00;92558.66;5034347;28;19916;-84
2021/01/05 05:29:54;;;;;;;;;;;;;;;4.66;100.00;92556.69;5033918;28;19924;-84
2021/01/05 05:32:26;;;;;;;;;;;;;;;4.59;100.00;92560.97;5033884;28;19940;-85
2021/01/05 05:35:07;;;;;;;;;;;;;;;4.56;100.00;92568.97;5033781;28;19924;-83
2021/01/05 05:37:37;;;;;;;;;;;;;;;4.46;100.00;92569.31;5033067;28;19921;-84
2021/01/05 05:40:11;;;;;;;;;;;;;;;4.46;100.00;92573.63;5033906;28;19917;-85
2021/01/05 05:42:58;;;;;;;;;;;;;;;4.37;100.00;92581.41;5033738;28;20244;-85
2021/01/05 05:45:27;;;;;;;;;;;;;;;4.41;100.00;92585.13;5026948;28;19917;-84
2021/01/05 05:47:58;;;;;;;;;;;;;;;4.39;100.00;92588.81;5033832;28;19920;-84
2021/01/05 05:50:29;;;;;;;;;;;;;;;4.43;100.00;92596.91;5033644;28;19924;-84
2021/01/05 05:52:58;;;;;;;;;;;;;;;4.47;100.00;92603.16;5033446;28;19921;-84
2021/01/05 05:55:28;;;;;;;;;;;;;;;4.48;100.00;92600.44;5033765;28;19924;-84
2021/01/05 05:57:57;;;;;;;;;;;;;;;4.50;100.00;92618.81;5033369;28;19924;-85
2021/01/05 06:00:33;;;;;;;;;;;;;;;4.45;100.00;92611.00;5033421;28;20305;-86
2021/01/05 06:03:00;;;;;;;;;;;;;;;4.45;100.00;92621.16;5033355;28;20245;-84
2021/01/05 06:05:28;;;;;;;;;;;;;;;4.44;100.00;92619.56;5033332;28;20283;-84
2021/01/05 06:07:55;;;;;;;;;;;;;;;4.34;100.00;92627.53;5033005;28;19966;-85
2021/01/05 06:10:21;;;;;;;;;;;;;;;4.29;100.00;92632.38;5033225;28;19940;-84
2021/01/05 06:12:47;;;;;;;;;;;;;;;4.27;100.00;92637.66;5033037;28;20363;-85
2021/01/05 06:15:14;;;;;;;;;;;;;;;4.31;100.00;92635.56;5033052;28;19924;-85
2021/01/05 06:17:41;;;;;;;;;;;;;;;4.33;100.00;92632.81;5032983;28;19917;-85
2021/01/05 06:20:08;;;;;;;;;;;;;;;4.31;100.00;92640.63;5033022;28;20336;-86
2021/01/05 06:22:34;;;;;;;;;;;;;;;4.17;100.00;92644.81;5032717;28;19936;-84
2021/01/05 06:25:00;;;;;;;;;;;;;;;4.08;100.00;92645.94;5032795;28;19932;-85
2021/01/05 06:27:26;;;;;;;;;;;;;;;4.08;100.00;92651.78;5032671;28;19917;-85
2021/01/05 06:29:52;;;;;;;;;;;;;;;4.10;100.00;92657.50;5032913;28;20267;-85
2021/01/05 06:32:18;;;;;;;;;;;;;;;4.09;100.00;92661.00;5031780;28;19948;-87
2021/01/05 06:34:45;;;;;;;;;;;;;;;4.12;100.00;92664.94;5032549;28;19924;-84
2021/01/05 06:37:11;;;;;;;;;;;;;;;4.10;100.00;92672.75;5032678;28;19921;-84
2021/01/05 06:39:37;;;;;;;;;;;;;;;4.03;100.00;92678.72;5032485;28;19947;-85
2021/01/05 06:42:03;;;;;;;;;;;;;;;4.01;100.00;92684.78;5032367;28;20351;-84
2021/01/05 06:44:29;;;;;;;;;;;;;;;3.90;100.00;92685.28;5032462;28;19928;-84
2021/01/05 06:46:55;;;;;;;;;;;;;;;3.77;100.00;92696.09;5032833;28;19917;-85
2021/01/05 06:49:21;;;;;;;;;;;;;;;3.73;100.00;92694.88;5032471;28;19921;-84
2021/01/05 06:51:48;;;;;;;;;;;;;;;3.67;100.00;92691.31;5032420;28;19917;-84
2021/01/05 06:54:14;;;;;;;;;;;;;;;3.66;100.00;92694.03;5032232;28;19917;-85
2021/01/05 06:56:51;;;;;;;;;;;;;;;3.67;100.00;92693.06;5032384;28;19917;-83
2021/01/05 06:59:17;;;;;;;;;;;;;;;3.76;100.00;92697.06;5032094;28;19917;-84
2021/01/05 07:01:49;;;;;;;;;;;;;;;3.83;100.00;92697.91;5032239;28;19917;-83
2021/01/05 07:04:15;;;;;;;;;;;;;;;3.91;100.00;92699.53;5032171;28;20043;-84
2021/01/05 07:06:41;;;;;;;;;;;;;;;4.04;100.00;92708.25;5032029;28;19940;-85
2021/01/05 07:09:08;;;;;;;;;;;;;;;4.17;100.00;92695.66;5032026;28;19924;-84
2021/01/05 07:11:34;;;;;;;;;;;;;;;4.24;100.00;92701.59;5032139;28;20019;-84
2021/01/05 07:14:00;;;;;;;;;;;;;;;4.38;100.00;92694.06;5032013;28;19916;-84
2021/01/05 07:16:26;;;;;;;;;;;;;;;4.60;100.00;92702.44;5032040;28;19917;-86
2021/01/05 07:18:52;;;;;;;;;;;;;;;4.71;100.00;92697.81;5031850;28;19921;-84
2021/01/05 07:21:18;;;;;;;;;;;;;;;4.81;100.00;92698.25;5032041;28;19949;-85
2021/01/05 07:23:44;;;;;;;;;;;;;;;4.98;100.00;92695.41;5031814;28;19917;-83
2021/01/05 07:26:12;;;;;;;;;;;;;;;5.11;100.00;92702.34;5032085;28;19928;-84
2021/01/05 07:28:39;;;;;;;;;;;;;;;5.29;100.00;92705.19;5031833;28;19921;-84
2021/01/05 07:31:05;;;;;;;;;;;;;;;5.50;100.00;92706.03;5031723;28;19924;-84
2021/01/05 07:33:33;;;;;;;;;;;;;;;5.62;100.00;92714.69;5030711;28;19917;-84
2021/01/05 07:36:01;;;;;;;;;;;;;;;5.75;99.40;92713.94;5030166;28;20008;-86
2021/01/05 07:38:27;;;;;;;;;;;;;;;5.91;97.96;92713.78;5030161;28;20012;-84
2021/01/05 07:40:53;;;;;;;;;;;;;;;6.01;97.57;92720.09;5031464;28;19921;-84
2021/01/05 07:43:20;;;;;;;;;;;;;;;5.88;97.11;92695.34;5030433;28;20299;-84
2021/01/05 07:45:46;;;;;;;;;;;;;;;6.08;97.91;92721.91;5030921;28;19916;-84
2021/01/05 07:48:12;;;;;;;;;;;;;;;6.22;97.38;92728.59;5031286;28;19921;-84
2021/01/05 07:50:38;;;;;;;;;;;;;;;6.28;96.47;92737.22;5031282;28;19963;-84
2021/01/05 07:53:05;;;;;;;;;;;;;;;6.38;95.51;92741.94;5031586;28;19963;-84
2021/01/05 07:55:36;;;;;;;;;;;;;;;6.52;95.33;92737.63;5031584;28;19917;-85
2021/01/05 07:58:02;;;;;;;;;;;;;;;6.64;93.44;92737.84;5031235;28;19921;-85
2021/01/05 08:00:29;;;;;;;;;;;;;;;6.81;93.03;92733.91;5031281;28;20271;-85
2021/01/05 08:02:57;;;;;;;;;;;;;;;6.95;91.50;92733.91;5031327;28;19917;-84
2021/01/05 08:05:23;;;;;;;;;;;;;;;6.99;92.12;92729.94;5031368;28;19928;-84
2021/01/05 08:07:49;;;;;;;;;;;;;;;7.04;91.89;92731.91;5031226;28;19917;-84
2021/01/05 08:10:17;;;;;;;;;;;;;;;7.05;91.13;92729.13;5031322;28;19924;-84
2021/01/05 08:12:43;;;;;;;;;;;;;;;7.01;91.46;92733.09;5031310;28;19979;-86
2021/01/05 08:15:12;;;;;;;;;;;;;;;7.14;89.70;92736.59;5031383;28;20303;-83
2021/01/05 08:17:39;;;;;;;;;;;;;;;7.06;89.24;92737.59;5031189;28;19921;-84
2021/01/05 08:20:05;;;;;;;;;;;;;;;7.16;91.10;92735.41;5031051;28;19916;-85
2021/01/05 08:22:31;;;;;;;;;;;;;;;7.25;90.57;92737.75;5030992;28;19921;-85
2021/01/05 08:24:57;;;;;;;;;;;;;;;7.19;90.56;92729.13;5031147;28;19917;-85
2021/01/05 08:27:23;;;;;;;;;;;;;;;7.34;88.78;92734.00;5031095;28;20351;-85
2021/01/05 08:29:49;;;;;;;;;;;;;;;7.44;86.69;92739.47;5031232;28;20326;-84
2021/01/05 08:32:15;;;;;;;;;;;;;;;7.66;87.63;92751.97;5030921;28;19917;-86
2021/01/05 08:34:43;;;;;;;;;;;;;;;7.70;86.11;92745.50;5031079;28;19917;-84
2021/01/05 08:37:09;;;;;;;;;;;;;;;7.68;85.76;92751.78;5030845;28;19928;-87
2021/01/05 08:39:35;;;;;;;;;;;;;;;7.81;85.24;92744.03;5031110;28;19917;-85
2021/01/05 08:42:01;;;;;;;;;;;;;;;7.87;84.52;92747.56;5030858;28;19925;-84
2021/01/05 08:44:27;;;;;;;;;;;;;;;7.91;85.12;92756.38;5031184;28;19944;-84
2021/01/05 08:46:59;;;;;;;;;;;;;;;7.93;83.29;92757.00;5030787;28;19924;-84
2021/01/05 08:49:25;;;;;;;;;;;;;;;8.06;84.20;92758.66;5031358;28;19917;-84
2021/01/05 08:51:52;;;;;;;;;;;;;;;8.01;84.75;92764.41;5031021;28;20291;-84
2021/01/05 08:54:20;;;;;;;;;;;;;;;8.21;84.39;92760.97;5030986;28;20343;-85
2021/01/05 08:56:51;;;;;;;;;;;;;;;8.09;83.36;92757.47;5033565;28;19924;-83
2021/01/05 08:59:17;;;;;;;;;;;;;;;8.20;83.62;92763.72;5034377;28;19917;-85
2021/01/05 09:01:43;;;;;;;;;;;;;;;8.26;81.91;92761.13;5034595;28;19917;-86
2021/01/05 09:04:09;;;;;;;;;;;;;;;8.25;82.95;92763.91;5034346;28;19928;-86
2021/01/05 09:06:35;;;;;;;;;;;;;;;8.18;83.82;92758.81;5034499;28;19979;-87
2021/01/05 09:09:02;;;;;;;;;;;;;;;8.28;83.11;92766.03;5034336;28;20363;-86
2021/01/05 09:11:28;;;;;;;;;;;;;;;8.35;82.70;92760.88;5034327;28;19924;-86
2021/01/05 09:13:55;;;;;;;;;;;;;;;8.45;83.71;92762.97;5034046;28;19970;-86
2021/01/05 09:16:24;;;;;;;;;;;;;;;8.52;79.19;92767.09;5034559;28;19924;-90
2021/01/05 09:18:50;;;;;;;;;;;;;;;8.53;77.62;92765.34;5034226;28;19917;-86
2021/01/05 09:21:18;;;;;;;;;;;;;;;8.47;76.07;92764.34;5034465;28;19940;-87
2021/01/05 09:23:44;;;;;;;;;;;;;;;8.52;78.08;92761.97;5034206;28;19924;-86
2021/01/05 09:26:17;;;;;;;;;;;;;;;8.23;76.42;92760.75;5034043;28;19978;-85
2021/01/05 09:28:43;;;;;;;;;;;;;;;8.01;78.06;92766.19;5033883;28;19971;-87
2021/01/05 09:31:09;;;;;;;;;;;;;;;7.91;76.77;92771.72;5033836;28;19928;-86
2021/01/05 09:33:36;;;;;;;;;;;;;;;7.86;79.69;92767.25;5033990;28;19917;-87
2021/01/05 09:36:02;;;;;;;;;;;;;;;8.07;80.52;92773.06;5033547;28;19917;-88
2021/01/05 09:38:28;;;;;;;;;;;;;;;8.08;79.59;92771.25;5033820;28;20889;-84
2021/01/05 09:40:54;;;;;;;;;;;;;;;8.08;79.73;92771.25;5034114;28;20376;-84
2021/01/05 09:43:21;;;;;;;;;;;;;;;8.00;79.25;92770.53;5033666;28;19917;-84
2021/01/05 09:45:47;;;;;;;;;;;;;;;8.03;79.64;92764.22;5033910;28;19951;-84
2021/01/05 09:48:13;;;;;;;;;;;;;;;7.89;79.19;92766.06;5033836;28;19917;-86
2021/01/05 09:50:40;;;;;;;;;;;;;;;7.87;78.79;92768.03;5033642;28;19987;-84
2021/01/05 09:53:06;;;;;;;;;;;;;;;8.03;81.34;92761.66;5033521;28;19962;-84
2021/01/05 09:55:32;;;;;;;;;;;;;;;8.16;79.18;92756.44;5033308;28;19917;-83
2021/01/05 09:57:58;;;;;;;;;;;;;;;8.17;76.41;92754.69;5033749;28;19925;-84
2021/01/05 10:00:26;;;;;;;;;;;;;;;8.12;76.25;92763.00;5033569;28;19924;-84
2021/01/05 10:02:52;;;;;;;;;;;;;;;8.06;75.62;92768.13;5033021;28;19921;-84
2021/01/05 10:05:18;;;;;;;;;;;;;;;7.96;76.57;92763.47;5051809;28;19916;-84
2021/01/05 10:07:45;;;;;;;;;;;;;;;7.89;78.35;92759.19;5053051;28;19916;-84
2021/01/05 10:10:15;;;;;;;;;;;;;;;8.00;77.74;92762.84;5053790;28;19916;-84
2021/01/05 10:12:41;;;;;;;;;;;;;;;8.00;79.28;92757.72;5053349;28;20038;-84
2021/01/05 10:15:08;;;;;;;;;;;;;;;8.12;76.19;92764.75;5053080;28;19921;-85
2021/01/05 10:17:34;;;;;;;;;;;;;;;8.10;72.40;92772.63;5053255;28;20252;-84
2021/01/05 10:20:01;;;;;;;;;;;;;;;8.06;73.71;92763.78;5053149;28;19920;-84
2021/01/05 10:22:27;;;;;;;;;;;;;;;7.96;73.82;92763.47;5052815;28;19916;-84
2021/01/05 10:24:53;;;;;;;;;;;;;;;8.02;73.00;92765.22;5052883;28;19917;-84
2021/01/05 10:27:19;;;;;;;;;;;;;;;8.13;71.52;92756.09;5053205;28;19920;-83
2021/01/05 10:29:45;;;;;;;;;;;;;;;8.34;72.41;92751.66;5053343;28;19923;-84
2021/01/05 10:32:11;;;;;;;;;;;;;;;8.42;73.27;92736.81;5052754;28;19916;-83
2021/01/05 10:34:37;;;;;;;;;;;;;;;8.50;72.85;92751.13;5052748;28;19921;-84
2021/01/05 10:37:05;;;;;;;;;;;;;;;8.31;70.50;92752.03;5052575;28;19953;-84
2021/01/05 10:39:31;;;;;;;;;;;;;;;8.29;75.01;92740.25;5052738;28;19958;-83
2021/01/05 10:41:57;;;;;;;;;;;;;;;8.53;75.23;92740.50;5052694;28;20247;-83
2021/01/05 10:44:23;;;;;;;;;;;;;;;8.71;74.93;92741.56;5052350;28;19924;-85
2021/01/05 10:46:49;;;;;;;;;;;;;;;8.75;72.03;92740.13;5052506;28;19920;-84
2021/01/05 10:49:16;;;;;;;;;;;;;;;8.78;70.06;92737.16;5052365;28;19917;-83
2021/01/05 10:51:46;;;;;;;;;;;;;;;8.69;70.78;92730.72;5052141;28;19920;-83
2021/01/05 10:54:13;;;;;;;;;;;;;;;8.79;74.55;92732.81;5052217;28;19916;-84
2021/01/05 10:56:39;;;;;;;;;;;;;;;8.91;70.83;92735.47;5052502;28;19978;-83
2021/01/05 10:59:07;;;;;;;;;;;;;;;8.97;73.07;92731.31;5052241;28;19916;-84
2021/01/05 11:01:33;;;;;;;;;;;;;;;8.98;71.99;92741.31;5051974;28;19934;-84
2021/01/05 11:03:59;;;;;;;;;;;;;;;8.99;69.45;92742.13;5052054;28;20715;-83
2021/01/05 11:06:25;;;;;;;;;;;;;;;9.00;70.32;92744.47;5051820;28;19921;-83
2021/01/05 11:08:52;;;;;;;;;;;;;;;9.05;71.83;92749.75;5052213;28;19924;-85
2021/01/05 11:11:20;;;;;;;;;;;;;;;8.88;71.22;92741.03;5052024;28;19922;-84
2021/01/05 11:13:46;;;;;;;;;;;;;;;8.73;69.72;92739.56;5051845;28;19916;-83
2021/01/05 11:16:12;;;;;;;;;;;;;;;8.59;70.57;92733.78;5051857;28;19921;-83
2021/01/05 11:18:39;;;;;;;;;;;;;;;8.62;72.98;92742.81;5051212;28;19916;-84
2021/01/05 11:21:06;;;;;;;;;;;;;;;8.69;71.41;92741.78;5051902;28;19983;-83
2021/01/05 11:23:32;;;;;;;;;;;;;;;8.68;71.58;92736.84;5051808;28;19917;-84
2021/01/05 11:25:59;;;;;;;;;;;;;;;8.81;72.99;92734.16;5051620;28;20397;-83
2021/01/05 11:28:25;;;;;;;;;;;;;;;8.92;72.41;92726.81;5051664;28;20355;-84
2021/01/05 11:30:51;;;;;;;;;;;;;;;8.99;72.11;92735.22;5051701;28;19924;-84
2021/01/05 11:33:17;;;;;;;;;;;;;;;9.03;73.47;92725.34;5051594;28;19966;-83
2021/01/05 11:35:43;;;;;;;;;;;;;;;9.08;71.05;92725.50;5051407;28;19916;-84
2021/01/05 11:38:10;;;;;;;;;;;;;;;8.99;71.54;92730.09;5051672;28;20351;-84
2021/01/05 11:40:36;;;;;;;;;;;;;;;8.97;71.92;92728.75;5051678;28;19920;-83
2021/01/05 11:43:03;;;;;;;;;;;;;;;8.88;71.45;92729.00;5051410;28;19917;-84
2021/01/05 11:45:29;;;;;;;;;;;;;;;8.88;72.13;92731.56;5051516;28;19921;-83
2021/01/05 11:47:55;;;;;;;;;;;;;;;8.89;72.82;92734.91;5051480;28;19924;-84
2021/01/05 11:50:21;;;;;;;;;;;;;;;8.93;72.96;92734.28;5051395;28;20278;-83
2021/01/05 11:52:47;;;;;;;;;;;;;;;9.02;72.49;92739.16;5051572;28;19921;-83
2021/01/05 11:55:13;;;;;;;;;;;;;;;9.08;73.19;92741.63;5032378;28;19917;-85
2021/01/05 11:57:39;;;;;;;;;;;;;;;9.20;72.73;92734.03;5031580;28;20318;-83
2021/01/05 12:00:08;;;;;;;;;;;;;;;9.14;72.44;92744.34;5031513;28;19921;-83
2021/01/05 12:02:34;;;;;;;;;;;;;;;9.30;74.24;92743.03;5031327;28;19921;-84
2021/01/05 12:05:00;;;;;;;;;;;;;;;9.38;74.31;92750.41;5031642;28;19917;-84
2021/01/05 12:07:26;;;;;;;;;;;;;;;9.38;74.34;92745.28;5031435;28;19923;-84
2021/01/05 12:09:54;;;;;;;;;;;;;;;9.38;74.20;92750.41;5031298;28;19916;-84
2021/01/05 12:12:20;;;;;;;;;;;;;;;9.40;74.44;92761.22;5031277;28;19980;-84
2021/01/05 12:14:46;;;;;;;;;;;;;;;9.34;71.24;92767.22;5031282;28;19917;-84
2021/01/05 12:17:14;;;;;;;;;;;;;;;9.38;71.18;92768.34;5031100;28;19924;-85
2021/01/05 12:19:43;;;;;;;;;;;;;;;9.36;69.69;92772.91;5031605;28;19921;-84
2021/01/05 12:22:09;;;;;;;;;;;;;;;9.43;70.38;92777.97;5031332;28;19917;-86
2021/01/05 12:24:38;;;;;;;;;;;;;;;9.40;70.42;92784.28;5031220;28;19963;-85
2021/01/05 12:27:05;;;;;;;;;;;;;;;9.39;72.85;92784.53;5031114;28;20543;-85
2021/01/05 12:29:32;;;;;;;;;;;;;;;9.28;72.12;92784.22;5031959;28;19939;-85
2021/01/05 12:31:59;;;;;;;;;;;;;;;9.10;70.83;92790.09;5035016;28;20290;-85
2021/01/05 12:34:27;;;;;;;;;;;;;;;9.16;72.70;92791.06;5035676;28;19921;-84
2021/01/05 12:36:53;;;;;;;;;;;;;;;9.17;73.44;92785.69;5034838;28;19928;-85
2021/01/05 12:39:21;;;;;;;;;;;;;;;9.08;72.22;92792.09;5035304;28;19963;-85
2021/01/05 12:41:47;;;;;;;;;;;;;;;9.00;72.80;92797.47;5035012;28;19967;-85
2021/01/05 12:44:14;;;;;;;;;;;;;;;9.02;72.55;92798.06;5034831;28;19920;-86
2021/01/05 12:46:40;;;;;;;;;;;;;;;8.93;72.04;92800.09;5034943;28;19928;-85
2021/01/05 12:49:07;;;;;;;;;;;;;;;8.69;73.75;92795.53;5034579;28;19917;-85
2021/01/05 12:51:34;;;;;;;;;;;;;;;8.80;73.75;92801.00;5034780;28;19917;-85
2021/01/05 12:54:01;;;;;;;;;;;;;;;8.73;73.75;92808.72;5034897;28;19940;-85
2021/01/05 12:56:28;;;;;;;;;;;;;;;8.74;74.05;92807.72;5034650;28;19921;-85